createdAt,value
2019-05-17T00:01:37.777Z,85.96
2019-05-17T00:04:29.075Z,85.67
2019-05-17T00:07:19.280Z,85.83
2019-05-17T00:10:10.070Z,86.75
2019-05-17T00:13:00.331Z,88.02
2019-05-17T00:15:50.457Z,90.15
2019-05-17T00:18:40.777Z,90.93
2019-05-17T00:21:30.925Z,90.84
2019-05-17T00:24:21.360Z,91.22
2019-05-17T00:27:11.745Z,91.16
2019-05-17T00:30:01.962Z,91.25
2019-05-17T00:32:52.525Z,92.09
2019-05-17T00:35:42.589Z,94.40
2019-05-17T00:38:45.582Z,95.86
2019-05-17T00:41:26.897Z,95.86
2019-05-17T00:44:16.996Z,96.11
2019-05-17T00:47:07.236Z,96.11
2019-05-17T00:49:57.553Z,97.11
2019-05-17T00:52:47.752Z,98.05
2019-05-17T00:55:37.911Z,98.83
2019-05-17T00:58:28.274Z,99.07
2019-05-17T01:01:18.747Z,100.00
2019-05-17T01:04:08.773Z,100.00
2019-05-17T01:06:59.053Z,100.00
2019-05-17T01:09:49.667Z,100.00
2019-05-17T01:12:39.720Z,100.00
2019-05-17T01:15:30.025Z,100.00
2019-05-17T01:18:20.065Z,100.00
2019-05-17T01:21:10.319Z,100.00
2019-05-17T01:24:00.659Z,100.00
2019-05-17T01:26:51.274Z,100.00
2019-05-17T01:29:41.764Z,100.00
2019-05-17T01:32:31.992Z,100.00
2019-05-17T01:35:21.958Z,100.00
2019-05-17T01:38:12.150Z,100.00
2019-05-17T01:41:02.111Z,100.00
2019-05-17T01:43:53.057Z,100.00
2019-05-17T01:46:43.175Z,100.00
2019-05-17T01:49:33.568Z,100.00
2019-05-17T01:52:23.792Z,100.00
2019-05-17T01:55:14.029Z,100.00
2019-05-17T01:58:04.073Z,100.00
2019-05-17T02:00:54.367Z,100.00
2019-05-17T02:03:46.762Z,100.00
2019-05-17T02:06:36.796Z,100.00
2019-05-17T02:09:37.148Z,100.00
2019-05-17T02:12:19.198Z,100.00
2019-05-17T02:15:09.576Z,100.00
2019-05-17T02:17:59.794Z,100.00
2019-05-17T02:20:49.908Z,100.00
2019-05-17T02:23:39.873Z,100.00
2019-05-17T02:26:30.007Z,100.00
2019-05-17T02:29:21.445Z,100.00
2019-05-17T02:32:12.883Z,100.00
2019-05-17T02:35:03.611Z,100.00
2019-05-17T02:37:53.875Z,100.00
2019-05-17T02:40:43.814Z,100.00
2019-05-17T02:43:34.074Z,100.00
2019-05-17T02:46:24.054Z,100.00
2019-05-17T02:49:14.402Z,100.00
2019-05-17T02:52:04.672Z,100.00
2019-05-17T02:54:55.901Z,100.00
2019-05-17T02:57:46.215Z,100.00
2019-05-17T03:00:36.468Z,100.00
2019-05-17T03:03:26.653Z,100.00
2019-05-17T03:06:16.959Z,100.00
2019-05-17T03:09:07.622Z,100.00
2019-05-17T03:11:57.712Z,100.00
2019-05-17T03:14:48.102Z,100.00
2019-05-17T03:17:38.343Z,100.00
2019-05-17T03:20:28.671Z,100.00
2019-05-17T03:23:18.700Z,100.00
2019-05-17T03:26:12.774Z,100.00
2019-05-17T03:29:03.284Z,100.00
2019-05-17T03:31:59.786Z,100.00
2019-05-17T03:34:45.149Z,100.00
2019-05-17T03:37:37.884Z,100.00
2019-05-17T03:41:00.558Z,100.00
2019-05-17T03:43:22.430Z,100.00
2019-05-17T03:46:13.953Z,100.00
2019-05-17T03:49:04.131Z,100.00
2019-05-17T03:51:55.115Z,100.00
2019-05-17T03:54:45.598Z,100.00
2019-05-17T03:57:35.970Z,100.00
2019-05-17T04:00:25.894Z,100.00
2019-05-17T04:03:16.121Z,100.00
2019-05-17T04:06:06.429Z,100.00
2019-05-17T04:08:56.667Z,100.00
2019-05-17T04:11:46.677Z,94.73
2019-05-17T04:14:37.990Z,87.82
2019-05-17T04:17:28.373Z,80.66
2019-05-17T04:20:18.526Z,75.26
2019-05-17T04:23:08.931Z,65.98
2019-05-17T04:26:03.779Z,60.77
2019-05-17T04:28:53.320Z,56.30
2019-05-17T04:31:44.069Z,52.17
2019-05-17T04:34:34.220Z,52.09
2019-05-17T04:37:24.829Z,48.26
2019-05-17T04:40:15.675Z,45.29
2019-05-17T04:43:06.558Z,42.28
2019-05-17T04:45:57.156Z,40.36
2019-05-17T04:48:48.018Z,40.38
2019-05-17T04:51:38.875Z,39.38
2019-05-17T04:54:33.096Z,37.30
2019-05-17T04:57:23.118Z,35.12
2019-05-17T05:00:14.024Z,33.37
2019-05-17T05:03:04.722Z,31.69
2019-05-17T05:05:55.621Z,32.49
2019-05-17T05:08:46.437Z,32.64
2019-05-17T05:11:51.883Z,33.49
2019-05-17T05:14:29.336Z,33.78
2019-05-17T05:17:22.171Z,32.51
2019-05-17T05:20:13.722Z,30.72
2019-05-17T05:23:04.617Z,28.85
2019-05-17T05:25:56.611Z,27.43
2019-05-17T05:28:49.711Z,26.41
2019-05-17T05:31:42.602Z,25.09
2019-05-17T05:34:32.773Z,23.55
2019-05-17T05:37:23.654Z,23.55
2019-05-17T05:40:14.591Z,22.32
2019-05-17T05:43:05.426Z,21.65
2019-05-17T05:45:56.367Z,19.91
2019-05-17T05:48:47.381Z,20.00
2019-05-17T05:51:37.903Z,19.67
2019-05-17T05:54:28.200Z,18.74
2019-05-17T05:57:18.792Z,18.12
2019-05-17T06:00:12.716Z,16.96
2019-05-17T06:03:04.227Z,16.49
2019-05-17T06:05:54.935Z,16.13
2019-05-17T06:08:45.457Z,15.21
2019-05-17T06:11:35.981Z,14.88
2019-05-17T06:14:26.259Z,14.68
2019-05-17T06:17:16.731Z,14.01
2019-05-17T06:20:07.860Z,13.53
2019-05-17T06:22:58.432Z,13.51
2019-05-17T06:25:48.859Z,13.58
2019-05-17T06:28:39.293Z,13.11
2019-05-17T06:31:29.799Z,11.83
2019-05-17T06:34:22.322Z,11.77
2019-05-17T06:37:14.897Z,11.66
2019-05-17T06:40:05.156Z,11.80
2019-05-17T06:42:55.432Z,11.10
2019-05-17T06:45:45.658Z,11.59
2019-05-17T06:48:36.183Z,10.74
2019-05-17T06:51:26.761Z,11.28
2019-05-17T06:54:17.029Z,11.71
2019-05-17T06:57:07.481Z,12.02
2019-05-17T06:59:59.381Z,10.62
2019-05-17T07:02:50.134Z,10.43
2019-05-17T07:05:42.352Z,10.15
2019-05-17T07:08:32.674Z,10.92
2019-05-17T07:11:23.194Z,10.69
2019-05-17T07:14:13.925Z,11.24
2019-05-17T07:17:04.627Z,11.36
2019-05-17T07:19:55.309Z,11.65
2019-05-17T07:22:45.538Z,13.21
2019-05-17T07:25:36.208Z,16.05
2019-05-17T07:28:26.446Z,17.79
2019-05-17T07:31:19.377Z,19.67
2019-05-17T07:34:10.458Z,21.42
2019-05-17T07:37:01.262Z,22.03
2019-05-17T07:40:01.195Z,23.86
2019-05-17T07:42:44.623Z,23.63
2019-05-17T07:45:35.143Z,23.63
2019-05-17T07:48:26.091Z,25.48
2019-05-17T07:51:19.360Z,25.48
2019-05-17T07:54:10.475Z,24.81
2019-05-17T07:57:02.379Z,25.33
2019-05-17T07:59:53.247Z,24.17
2019-05-17T08:02:44.056Z,24.17
2019-05-17T08:05:34.752Z,25.15
2019-05-17T08:08:25.527Z,25.75
2019-05-17T08:11:16.484Z,26.16
2019-05-17T08:14:07.612Z,27.96
2019-05-17T08:16:59.899Z,28.27
2019-05-17T08:19:51.076Z,28.80
2019-05-17T08:22:42.027Z,29.40
2019-05-17T08:25:32.877Z,30.45
2019-05-17T08:28:23.695Z,30.73
2019-05-17T08:31:14.439Z,30.98
2019-05-17T08:34:05.236Z,32.02
2019-05-17T08:36:56.100Z,32.41
2019-05-17T08:39:46.701Z,33.31
2019-05-17T08:42:40.662Z,32.55
2019-05-17T08:45:31.030Z,32.83
2019-05-17T08:48:21.880Z,32.75
2019-05-17T08:51:12.497Z,30.97
2019-05-17T08:54:03.242Z,28.46
2019-05-17T08:56:54.139Z,25.09
2019-05-17T08:59:44.770Z,21.69
2019-05-17T09:02:35.701Z,19.58
2019-05-17T09:05:26.701Z,19.58
2019-05-17T09:08:17.513Z,17.81
2019-05-17T09:11:09.931Z,22.84
2019-05-17T09:14:02.107Z,22.84
2019-05-17T09:16:54.326Z,24.71
2019-05-17T09:19:45.429Z,26.76
2019-05-17T09:22:36.443Z,30.21
2019-05-17T09:25:30.094Z,29.76
2019-05-17T09:28:20.460Z,30.96
2019-05-17T09:31:11.927Z,30.96
2019-05-17T09:34:02.576Z,31.46
2019-05-17T09:36:53.522Z,31.01
2019-05-17T09:39:44.303Z,30.98
2019-05-17T09:42:35.161Z,31.96
2019-05-17T09:45:25.977Z,32.61
2019-05-17T09:48:19.487Z,31.50
2019-05-17T09:51:10.489Z,32.25
2019-05-17T09:54:01.420Z,32.10
2019-05-17T09:56:52.154Z,31.62
2019-05-17T09:59:43.116Z,31.51
2019-05-17T10:02:33.681Z,32.83
2019-05-17T10:05:24.553Z,34.09
2019-05-17T10:08:15.428Z,34.46
2019-05-17T10:11:09.656Z,33.03
2019-05-17T10:14:01.128Z,33.93
2019-05-17T10:16:50.573Z,36.17
2019-05-17T10:19:41.422Z,35.56
2019-05-17T10:22:34.075Z,36.65
2019-05-17T10:25:24.814Z,36.42
2019-05-17T10:28:15.695Z,38.36
2019-05-17T10:31:06.481Z,37.40
2019-05-17T10:33:58.898Z,36.41
2019-05-17T10:36:50.696Z,38.37
2019-05-17T10:39:41.887Z,39.38
2019-05-17T10:42:32.711Z,36.68
2019-05-17T10:45:23.802Z,40.65
2019-05-17T10:48:14.597Z,40.91
2019-05-17T10:51:05.395Z,43.34
2019-05-17T10:53:56.196Z,44.82
2019-05-17T10:56:46.923Z,43.45
2019-05-17T10:59:37.789Z,46.99
2019-05-17T11:02:30.466Z,46.96
2019-05-17T11:05:22.042Z,51.39
2019-05-17T11:08:12.607Z,56.10
2019-05-17T11:11:03.532Z,55.26
2019-05-17T11:13:54.475Z,58.52
2019-05-17T11:16:45.274Z,54.18
2019-05-17T11:19:35.981Z,55.08
2019-05-17T11:22:26.605Z,54.18
2019-05-17T11:25:17.609Z,53.87
2019-05-17T11:28:08.185Z,53.93
2019-05-17T11:30:59.239Z,54.76
2019-05-17T11:33:50.244Z,52.69
2019-05-17T11:36:40.995Z,51.90
2019-05-17T11:39:31.826Z,50.06
2019-05-17T11:42:22.666Z,45.64
2019-05-17T11:45:26.744Z,45.12
2019-05-17T11:48:05.913Z,45.44
2019-05-17T11:50:56.744Z,43.65
2019-05-17T11:53:47.567Z,46.61
2019-05-17T11:56:38.415Z,43.81
2019-05-17T11:59:29.233Z,42.33
2019-05-17T12:02:21.582Z,45.89
2019-05-17T12:05:12.378Z,45.36
2019-05-17T12:08:02.574Z,45.12
2019-05-17T12:10:53.321Z,44.17
2019-05-17T12:13:44.146Z,45.70
2019-05-17T12:16:35.121Z,44.69
2019-05-17T12:19:25.773Z,46.18
2019-05-17T12:22:17.666Z,48.20
2019-05-17T12:25:09.631Z,45.63
2019-05-17T12:28:00.641Z,44.67
2019-05-17T12:30:51.251Z,45.40
2019-05-17T12:33:42.078Z,43.46
2019-05-17T12:36:32.797Z,43.87
2019-05-17T12:39:27.430Z,43.49
2019-05-17T12:42:23.563Z,43.83
2019-05-17T12:45:19.796Z,43.49
2019-05-17T12:48:12.362Z,42.17
2019-05-17T12:51:05.485Z,43.53
2019-05-17T12:53:58.192Z,42.67
2019-05-17T12:56:52.323Z,44.25
2019-05-17T12:59:43.663Z,44.30
2019-05-17T13:02:37.213Z,43.67
2019-05-17T13:05:29.179Z,44.63
2019-05-17T13:08:20.222Z,42.64
2019-05-17T13:11:10.780Z,47.09
2019-05-17T13:14:01.743Z,46.48
2019-05-17T13:16:52.291Z,45.78
2019-05-17T13:19:43.185Z,47.80
2019-05-17T13:22:34.807Z,52.79
2019-05-17T13:25:24.799Z,49.51
2019-05-17T13:28:15.042Z,50.41
2019-05-17T13:31:05.642Z,50.82
2019-05-17T13:33:56.395Z,51.74
2019-05-17T13:36:47.053Z,47.35
2019-05-17T13:39:37.771Z,48.28
2019-05-17T13:42:28.427Z,49.92
2019-05-17T13:45:19.072Z,47.63
2019-05-17T13:48:09.933Z,47.33
2019-05-17T13:51:00.482Z,51.34
2019-05-17T13:53:51.296Z,46.58
2019-05-17T13:56:41.885Z,50.39
2019-05-17T13:59:32.156Z,45.78
2019-05-17T14:02:23.062Z,48.77
2019-05-17T14:05:13.163Z,48.60
2019-05-17T14:08:04.083Z,46.44
2019-05-17T14:10:54.308Z,46.52
2019-05-17T14:13:44.727Z,58.54
2019-05-17T14:16:35.806Z,70.37
2019-05-17T14:19:26.083Z,73.86
2019-05-17T14:22:16.297Z,67.94
2019-05-17T14:25:06.639Z,68.73
2019-05-17T14:27:57.786Z,68.84
2019-05-17T14:30:47.891Z,69.57
2019-05-17T14:33:38.227Z,64.47
2019-05-17T14:36:28.506Z,63.92
2019-05-17T14:39:18.965Z,61.91
2019-05-17T14:42:09.195Z,71.17
2019-05-17T14:44:59.436Z,67.65
2019-05-17T14:47:49.552Z,63.42
2019-05-17T14:50:39.881Z,68.10
2019-05-17T14:53:30.150Z,64.64
2019-05-17T14:56:20.126Z,61.86
2019-05-17T14:59:11.042Z,63.41
2019-05-17T15:02:01.336Z,64.80
2019-05-17T15:04:51.312Z,66.20
2019-05-17T15:07:41.715Z,64.51
2019-05-17T15:10:31.838Z,64.37
2019-05-17T15:13:22.293Z,59.79
2019-05-17T15:16:12.391Z,60.79
2019-05-17T15:19:02.451Z,62.74
2019-05-17T15:21:52.384Z,61.30
2019-05-17T15:24:43.694Z,64.27
2019-05-17T15:27:33.999Z,64.23
2019-05-17T15:30:24.066Z,63.51
2019-05-17T15:33:14.374Z,60.07
2019-05-17T15:36:04.600Z,59.48
2019-05-17T15:38:57.568Z,58.21
2019-05-17T15:41:49.024Z,60.92
2019-05-17T15:44:39.245Z,58.66
2019-05-17T15:47:29.520Z,62.00
2019-05-17T15:50:19.759Z,59.80
2019-05-17T15:53:10.262Z,60.26
2019-05-17T15:56:00.469Z,59.81
2019-05-17T15:58:50.843Z,61.39
2019-05-17T16:01:41.066Z,62.20
2019-05-17T16:04:31.343Z,57.39
2019-05-17T16:07:21.543Z,64.11
2019-05-17T16:10:13.448Z,64.13
2019-05-17T16:13:03.787Z,64.01
2019-05-17T16:15:54.965Z,64.83
2019-05-17T16:18:45.183Z,63.56
2019-05-17T16:21:35.502Z,66.17
2019-05-17T16:24:25.653Z,67.54
2019-05-17T16:27:15.900Z,67.40
2019-05-17T16:30:06.352Z,67.53
2019-05-17T16:32:56.673Z,69.66
2019-05-17T16:35:46.892Z,70.02
2019-05-17T16:38:37.189Z,71.54
2019-05-17T16:41:27.136Z,72.13
2019-05-17T16:44:17.334Z,73.99
2019-05-17T16:47:07.684Z,74.48
2019-05-17T16:49:57.962Z,74.83
2019-05-17T16:52:48.319Z,75.31
2019-05-17T16:55:39.809Z,75.36
2019-05-17T16:58:29.776Z,74.76
2019-05-17T17:01:20.090Z,74.54
2019-05-17T17:04:10.329Z,75.78
2019-05-17T17:07:00.588Z,75.92
2019-05-17T17:09:50.812Z,76.38
2019-05-17T17:12:42.130Z,78.22
2019-05-17T17:15:32.369Z,79.60
2019-05-17T17:18:22.654Z,80.78
2019-05-17T17:21:13.268Z,80.94
2019-05-17T17:24:03.740Z,82.14
2019-05-17T17:26:54.908Z,82.94
2019-05-17T17:29:45.252Z,82.33
2019-05-17T17:32:35.495Z,82.02
2019-05-17T17:35:25.546Z,82.75
2019-05-17T17:38:15.687Z,82.84
2019-05-17T17:41:05.971Z,84.18
2019-05-17T17:43:58.854Z,85.57
2019-05-17T17:46:47.753Z,85.28
2019-05-17T17:49:37.835Z,84.82
2019-05-17T17:52:28.360Z,83.27
2019-05-17T17:55:18.692Z,80.99
2019-05-17T17:58:09.075Z,80.46
2019-05-17T18:00:59.042Z,82.37
2019-05-17T18:03:49.267Z,84.86
2019-05-17T18:06:39.299Z,84.68
2019-05-17T18:09:29.598Z,83.52
2019-05-17T18:12:19.769Z,79.77
2019-05-17T18:15:10.056Z,78.09
2019-05-17T18:18:01.558Z,78.85
2019-05-17T18:20:52.543Z,79.57
2019-05-17T18:23:42.932Z,79.82
2019-05-17T18:26:33.872Z,78.85
2019-05-17T18:29:23.823Z,78.19
2019-05-17T18:32:14.113Z,76.66
2019-05-17T18:35:04.500Z,75.47
2019-05-17T18:37:54.731Z,73.91
2019-05-17T18:40:45.009Z,73.24
2019-05-17T18:43:35.346Z,72.66
2019-05-17T18:46:25.608Z,70.00
2019-05-17T18:49:15.970Z,69.35
2019-05-17T18:52:06.350Z,68.40
2019-05-17T18:54:56.765Z,67.12
2019-05-17T18:57:47.040Z,66.68
2019-05-17T19:00:38.482Z,65.49
2019-05-17T19:03:28.795Z,65.28
2019-05-17T19:06:19.091Z,64.46
2019-05-17T19:09:09.563Z,64.54
2019-05-17T19:11:59.590Z,63.58
2019-05-17T19:14:49.845Z,63.80
2019-05-17T19:17:40.213Z,60.95
2019-05-17T19:20:31.261Z,58.82
2019-05-17T19:23:21.689Z,57.47
2019-05-17T19:26:12.090Z,58.84
2019-05-17T19:29:02.562Z,57.62
2019-05-17T19:31:52.464Z,54.87
2019-05-17T19:34:42.670Z,52.67
2019-05-17T19:37:32.867Z,50.55
2019-05-17T19:40:23.083Z,49.71
2019-05-17T19:43:13.286Z,49.17
2019-05-17T19:46:03.527Z,49.47
2019-05-17T19:48:53.753Z,50.09
2019-05-17T19:51:44.273Z,50.80
2019-05-17T19:54:34.656Z,52.57
2019-05-17T19:57:24.965Z,50.83
2019-05-17T20:00:16.051Z,50.31
2019-05-17T20:03:06.081Z,49.18
2019-05-17T20:05:56.007Z,49.36
2019-05-17T20:08:46.239Z,49.77
2019-05-17T20:11:36.472Z,50.04
2019-05-17T20:14:26.710Z,49.97
2019-05-17T20:17:16.840Z,53.24
2019-05-17T20:20:07.399Z,52.82
2019-05-17T20:22:59.093Z,51.91
2019-05-17T20:25:49.254Z,51.42
2019-05-17T20:28:39.380Z,52.19
2019-05-17T20:31:29.653Z,54.71
2019-05-17T20:34:19.846Z,52.42
2019-05-17T20:37:10.155Z,53.69
2019-05-17T20:40:00.045Z,54.36
2019-05-17T20:42:50.316Z,54.22
2019-05-17T20:45:40.599Z,56.04
2019-05-17T20:48:31.075Z,55.52
2019-05-17T20:51:21.435Z,56.77
2019-05-17T20:54:11.506Z,57.53
2019-05-17T20:57:01.399Z,59.12
2019-05-17T20:59:51.652Z,60.33
2019-05-17T21:02:41.647Z,60.62
2019-05-17T21:05:31.919Z,60.79
2019-05-17T21:08:21.949Z,62.15
2019-05-17T21:11:12.031Z,62.77
2019-05-17T21:14:02.258Z,62.74
2019-05-17T21:16:52.694Z,63.96
2019-05-17T21:19:43.022Z,65.08
2019-05-17T21:22:33.353Z,65.78
2019-05-17T21:25:23.655Z,65.76
2019-05-17T21:28:13.953Z,65.99
2019-05-17T21:31:04.188Z,66.91
2019-05-17T21:33:55.390Z,67.17
2019-05-17T21:36:45.633Z,68.13
2019-05-17T21:39:35.686Z,68.42
2019-05-17T21:42:25.888Z,68.78
2019-05-17T21:45:17.276Z,68.61
2019-05-17T21:48:07.649Z,67.77
2019-05-17T21:50:58.037Z,68.04
2019-05-17T21:53:48.273Z,68.01
2019-05-17T21:56:38.540Z,68.00
2019-05-17T21:59:28.436Z,67.67
2019-05-17T22:02:18.756Z,67.79
2019-05-17T22:05:08.943Z,68.14
2019-05-17T22:07:59.292Z,68.00
2019-05-17T22:10:49.653Z,67.95
2019-05-17T22:13:39.817Z,67.80
2019-05-17T22:16:30.202Z,68.04
2019-05-17T22:19:20.465Z,67.58
2019-05-17T22:22:10.635Z,67.84
2019-05-17T22:25:00.645Z,68.97
2019-05-17T22:27:50.923Z,68.32
2019-05-17T22:30:41.292Z,69.39
2019-05-17T22:33:31.504Z,69.65
2019-05-17T22:36:21.897Z,70.22
2019-05-17T22:39:12.199Z,68.63
2019-05-17T22:42:02.609Z,67.68
2019-05-17T22:44:53.016Z,69.39
2019-05-17T22:47:43.211Z,69.29
2019-05-17T22:50:33.020Z,69.71
2019-05-17T22:53:23.301Z,69.84
2019-05-17T22:56:13.607Z,70.24
2019-05-17T22:59:03.710Z,69.64
2019-05-17T23:01:53.944Z,70.04
2019-05-17T23:04:44.259Z,71.44
2019-05-17T23:07:34.322Z,71.93
2019-05-17T23:10:24.785Z,71.52
2019-05-17T23:13:15.172Z,70.14
2019-05-17T23:16:07.308Z,70.13
2019-05-17T23:19:10.169Z,69.80
2019-05-17T23:22:00.477Z,68.83
2019-05-17T23:24:50.651Z,69.65
2019-05-17T23:27:40.925Z,69.00
2019-05-17T23:30:31.153Z,68.02
2019-05-17T23:33:21.508Z,68.68
2019-05-17T23:36:11.772Z,68.64
2019-05-17T23:39:02.282Z,68.78
2019-05-17T23:41:53.455Z,69.21
2019-05-17T23:44:43.671Z,68.84
2019-05-17T23:47:33.572Z,68.89
2019-05-17T23:50:23.862Z,68.75
2019-05-17T23:53:14.114Z,69.24
2019-05-17T23:56:04.272Z,68.83
2019-05-17T23:58:54.520Z,68.46
